sensor_id;sensor_type;location;lat;lon;timestamp;P1;durP1;ratioP1;P2;durP2;ratioP2
45326;SDS011;31062;49.678;24.560;2023-05-27T00:00:27;7.15;;;6.40;;
45326;SDS011;31062;49.678;24.560;2023-05-27T00:03:13;6.22;;;5.63;;
45326;SDS011;31062;49.678;24.560;2023-05-27T00:06:00;6.72;;;5.90;;
45326;SDS011;31062;49.678;24.560;2023-05-27T00:08:46;6.30;;;5.70;;
45326;SDS011;31062;49.678;24.560;2023-05-27T00:11:31;7.88;;;5.93;;
45326;SDS011;31062;49.678;24.560;2023-05-27T00:14:17;7.68;;;5.65;;
45326;SDS011;31062;49.678;24.560;2023-05-27T00:17:03;6.28;;;5.70;;
45326;SDS011;31062;49.678;24.560;2023-05-27T00:19:48;6.75;;;6.05;;
45326;SDS011;31062;49.678;24.560;2023-05-27T00:22:36;7.85;;;5.95;;
45326;SDS011;31062;49.678;24.560;2023-05-27T00:25:22;7.35;;;6.60;;
45326;SDS011;31062;49.678;24.560;2023-05-27T00:28:08;9.52;;;6.63;;
45326;SDS011;31062;49.678;24.560;2023-05-27T00:30:53;7.90;;;6.13;;
45326;SDS011;31062;49.678;24.560;2023-05-27T00:33:41;10.25;;;6.53;;
45326;SDS011;31062;49.678;24.560;2023-05-27T00:36:29;8.60;;;6.07;;
45326;SDS011;31062;49.678;24.560;2023-05-27T00:39:16;6.90;;;6.25;;
45326;SDS011;31062;49.678;24.560;2023-05-27T00:42:02;6.68;;;6.05;;
45326;SDS011;31062;49.678;24.560;2023-05-27T00:44:47;8.15;;;7.03;;
45326;SDS011;31062;49.678;24.560;2023-05-27T00:47:33;7.32;;;6.30;;
45326;SDS011;31062;49.678;24.560;2023-05-27T00:50:19;10.15;;;6.65;;
45326;SDS011;31062;49.678;24.560;2023-05-27T00:53:07;7.55;;;6.70;;
45326;SDS011;31062;49.678;24.560;2023-05-27T00:55:53;8.18;;;6.18;;
45326;SDS011;31062;49.678;24.560;2023-05-27T00:58:43;10.57;;;7.32;;
45326;SDS011;31062;49.678;24.560;2023-05-27T01:01:29;6.82;;;6.20;;
45326;SDS011;31062;49.678;24.560;2023-05-27T01:04:15;7.45;;;6.68;;
45326;SDS011;31062;49.678;24.560;2023-05-27T01:07:38;12.77;;;7.05;;
45326;SDS011;31062;49.678;24.560;2023-05-27T01:10:26;8.13;;;6.07;;
45326;SDS011;31062;49.678;24.560;2023-05-27T01:16:24;10.70;;;6.65;;
45326;SDS011;31062;49.678;24.560;2023-05-27T01:19:13;10.38;;;7.20;;
45326;SDS011;31062;49.678;24.560;2023-05-27T01:22:03;8.50;;;6.63;;
45326;SDS011;31062;49.678;24.560;2023-05-27T01:24:51;8.77;;;7.00;;
45326;SDS011;31062;49.678;24.560;2023-05-27T01:27:36;7.53;;;6.70;;
45326;SDS011;31062;49.678;24.560;2023-05-27T01:30:25;8.32;;;7.13;;
45326;SDS011;31062;49.678;24.560;2023-05-27T01:33:13;7.93;;;6.47;;
45326;SDS011;31062;49.678;24.560;2023-05-27T01:36:04;10.90;;;6.70;;
45326;SDS011;31062;49.678;24.560;2023-05-27T01:38:56;11.05;;;6.95;;
45326;SDS011;31062;49.678;24.560;2023-05-27T01:41:45;8.52;;;6.40;;
45326;SDS011;31062;49.678;24.560;2023-05-27T01:44:32;10.10;;;6.97;;
45326;SDS011;31062;49.678;24.560;2023-05-27T01:47:17;8.18;;;7.07;;
45326;SDS011;31062;49.678;24.560;2023-05-27T01:50:03;10.13;;;6.90;;
45326;SDS011;31062;49.678;24.560;2023-05-27T01:52:50;8.63;;;6.85;;
45326;SDS011;31062;49.678;24.560;2023-05-27T01:55:35;9.30;;;7.53;;
45326;SDS011;31062;49.678;24.560;2023-05-27T01:58:20;8.38;;;6.82;;
45326;SDS011;31062;49.678;24.560;2023-05-27T02:01:06;12.13;;;7.00;;
45326;SDS011;31062;49.678;24.560;2023-05-27T02:03:51;10.45;;;6.72;;
45326;SDS011;31062;49.678;24.560;2023-05-27T02:06:37;9.60;;;6.80;;
45326;SDS011;31062;49.678;24.560;2023-05-27T02:09:22;9.18;;;6.55;;
45326;SDS011;31062;49.678;24.560;2023-05-27T02:12:08;8.70;;;6.63;;
45326;SDS011;31062;49.678;24.560;2023-05-27T02:14:53;11.85;;;7.07;;
45326;SDS011;31062;49.678;24.560;2023-05-27T02:17:39;8.80;;;6.72;;
45326;SDS011;31062;49.678;24.560;2023-05-27T02:20:25;7.88;;;6.70;;
45326;SDS011;31062;49.678;24.560;2023-05-27T02:23:10;12.10;;;7.20;;
45326;SDS011;31062;49.678;24.560;2023-05-27T02:25:56;11.45;;;6.80;;
45326;SDS011;31062;49.678;24.560;2023-05-27T02:28:41;12.40;;;6.78;;
45326;SDS011;31062;49.678;24.560;2023-05-27T02:31:26;7.95;;;6.68;;
45326;SDS011;31062;49.678;24.560;2023-05-27T02:34:12;12.63;;;7.05;;
45326;SDS011;31062;49.678;24.560;2023-05-27T02:36:59;10.35;;;7.20;;
45326;SDS011;31062;49.678;24.560;2023-05-27T02:39:45;10.35;;;7.80;;
45326;SDS011;31062;49.678;24.560;2023-05-27T02:42:31;11.50;;;7.47;;
45326;SDS011;31062;49.678;24.560;2023-05-27T02:45:16;8.20;;;7.10;;
45326;SDS011;31062;49.678;24.560;2023-05-27T02:48:02;10.68;;;7.00;;
45326;SDS011;31062;49.678;24.560;2023-05-27T02:50:48;9.32;;;6.93;;
45326;SDS011;31062;49.678;24.560;2023-05-27T02:53:33;9.10;;;7.30;;
45326;SDS011;31062;49.678;24.560;2023-05-27T02:56:19;8.20;;;7.35;;
45326;SDS011;31062;49.678;24.560;2023-05-27T02:59:05;10.15;;;7.70;;
45326;SDS011;31062;49.678;24.560;2023-05-27T03:01:50;18.45;;;7.47;;
45326;SDS011;31062;49.678;24.560;2023-05-27T03:04:36;8.10;;;6.63;;
45326;SDS011;31062;49.678;24.560;2023-05-27T03:07:21;14.30;;;7.80;;
45326;SDS011;31062;49.678;24.560;2023-05-27T03:10:07;7.80;;;6.60;;
45326;SDS011;31062;49.678;24.560;2023-05-27T03:12:53;12.90;;;7.35;;
45326;SDS011;31062;49.678;24.560;2023-05-27T03:15:41;8.55;;;7.68;;
45326;SDS011;31062;49.678;24.560;2023-05-27T03:18:27;8.23;;;7.30;;
45326;SDS011;31062;49.678;24.560;2023-05-27T03:21:13;12.13;;;7.90;;
45326;SDS011;31062;49.678;24.560;2023-05-27T03:24:00;11.63;;;7.80;;
45326;SDS011;31062;49.678;24.560;2023-05-27T03:26:46;10.55;;;7.85;;
45326;SDS011;31062;49.678;24.560;2023-05-27T03:29:31;12.55;;;7.65;;
45326;SDS011;31062;49.678;24.560;2023-05-27T03:32:16;12.73;;;8.20;;
45326;SDS011;31062;49.678;24.560;2023-05-27T03:35:05;12.23;;;8.93;;
45326;SDS011;31062;49.678;24.560;2023-05-27T03:37:51;12.00;;;7.82;;
45326;SDS011;31062;49.678;24.560;2023-05-27T03:40:37;15.55;;;8.13;;
45326;SDS011;31062;49.678;24.560;2023-05-27T03:43:25;9.88;;;8.00;;
45326;SDS011;31062;49.678;24.560;2023-05-27T03:46:12;10.85;;;7.82;;
45326;SDS011;31062;49.678;24.560;2023-05-27T03:48:57;9.60;;;7.80;;
45326;SDS011;31062;49.678;24.560;2023-05-27T03:51:42;10.18;;;7.55;;
45326;SDS011;31062;49.678;24.560;2023-05-27T03:54:30;11.50;;;7.85;;
45326;SDS011;31062;49.678;24.560;2023-05-27T03:57:16;11.52;;;7.22;;
45326;SDS011;31062;49.678;24.560;2023-05-27T04:00:01;11.45;;;7.05;;
45326;SDS011;31062;49.678;24.560;2023-05-27T04:02:54;9.60;;;7.20;;
45326;SDS011;31062;49.678;24.560;2023-05-27T04:05:41;16.70;;;7.90;;
45326;SDS011;31062;49.678;24.560;2023-05-27T04:08:26;11.13;;;7.65;;
45326;SDS011;31062;49.678;24.560;2023-05-27T04:11:13;10.38;;;7.30;;
45326;SDS011;31062;49.678;24.560;2023-05-27T04:13:58;9.98;;;7.35;;
45326;SDS011;31062;49.678;24.560;2023-05-27T04:16:43;10.32;;;6.95;;
45326;SDS011;31062;49.678;24.560;2023-05-27T04:19:29;10.05;;;7.50;;
45326;SDS011;31062;49.678;24.560;2023-05-27T04:22:18;12.15;;;7.00;;
45326;SDS011;31062;49.678;24.560;2023-05-27T04:25:04;13.93;;;7.22;;
45326;SDS011;31062;49.678;24.560;2023-05-27T04:28:00;11.60;;;6.93;;
45326;SDS011;31062;49.678;24.560;2023-05-27T04:30:51;11.48;;;6.55;;
45326;SDS011;31062;49.678;24.560;2023-05-27T04:33:58;13.45;;;6.68;;
45326;SDS011;31062;49.678;24.560;2023-05-27T04:36:44;11.77;;;6.43;;
45326;SDS011;31062;49.678;24.560;2023-05-27T04:39:37;12.10;;;6.03;;
45326;SDS011;31062;49.678;24.560;2023-05-27T04:42:31;9.43;;;5.57;;
45326;SDS011;31062;49.678;24.560;2023-05-27T04:45:18;10.65;;;5.85;;
45326;SDS011;31062;49.678;24.560;2023-05-27T04:48:04;18.15;;;5.45;;
45326;SDS011;31062;49.678;24.560;2023-05-27T04:50:50;10.80;;;5.15;;
45326;SDS011;31062;49.678;24.560;2023-05-27T04:53:39;9.73;;;5.00;;
45326;SDS011;31062;49.678;24.560;2023-05-27T04:56:24;7.38;;;5.03;;
45326;SDS011;31062;49.678;24.560;2023-05-27T04:59:12;11.43;;;5.80;;
45326;SDS011;31062;49.678;24.560;2023-05-27T05:02:02;7.78;;;4.47;;
45326;SDS011;31062;49.678;24.560;2023-05-27T05:05:18;6.50;;;4.07;;
45326;SDS011;31062;49.678;24.560;2023-05-27T05:08:04;6.88;;;4.28;;
45326;SDS011;31062;49.678;24.560;2023-05-27T05:10:50;7.57;;;4.93;;
45326;SDS011;31062;49.678;24.560;2023-05-27T05:13:37;11.32;;;4.63;;
45326;SDS011;31062;49.678;24.560;2023-05-27T05:16:26;8.05;;;4.65;;
45326;SDS011;31062;49.678;24.560;2023-05-27T05:19:11;15.57;;;5.00;;
45326;SDS011;31062;49.678;24.560;2023-05-27T05:21:58;13.45;;;4.35;;
45326;SDS011;31062;49.678;24.560;2023-05-27T05:24:46;6.40;;;3.70;;
45326;SDS011;31062;49.678;24.560;2023-05-27T05:27:32;9.25;;;4.38;;
45326;SDS011;31062;49.678;24.560;2023-05-27T05:30:19;7.15;;;4.38;;
45326;SDS011;31062;49.678;24.560;2023-05-27T05:33:05;7.75;;;4.35;;
45326;SDS011;31062;49.678;24.560;2023-05-27T05:35:51;7.97;;;3.90;;
45326;SDS011;31062;49.678;24.560;2023-05-27T05:38:45;6.90;;;4.32;;
45326;SDS011;31062;49.678;24.560;2023-05-27T05:41:31;5.90;;;4.05;;
45326;SDS011;31062;49.678;24.560;2023-05-27T05:44:18;10.65;;;4.15;;
45326;SDS011;31062;49.678;24.560;2023-05-27T05:47:05;6.88;;;4.07;;
45326;SDS011;31062;49.678;24.560;2023-05-27T05:49:51;7.25;;;4.22;;
45326;SDS011;31062;49.678;24.560;2023-05-27T05:52:37;9.18;;;4.43;;
45326;SDS011;31062;49.678;24.560;2023-05-27T05:55:23;8.98;;;4.43;;
45326;SDS011;31062;49.678;24.560;2023-05-27T05:58:09;9.85;;;4.65;;
45326;SDS011;31062;49.678;24.560;2023-05-27T06:00:55;8.02;;;4.18;;
45326;SDS011;31062;49.678;24.560;2023-05-27T06:03:50;6.80;;;4.50;;
45326;SDS011;31062;49.678;24.560;2023-05-27T06:06:47;9.70;;;4.63;;
45326;SDS011;31062;49.678;24.560;2023-05-27T06:09:42;10.20;;;4.40;;
45326;SDS011;31062;49.678;24.560;2023-05-27T06:12:35;9.63;;;4.65;;
45326;SDS011;31062;49.678;24.560;2023-05-27T06:15:21;8.00;;;4.90;;
45326;SDS011;31062;49.678;24.560;2023-05-27T06:18:07;9.10;;;4.90;;
45326;SDS011;31062;49.678;24.560;2023-05-27T06:20:53;8.50;;;4.25;;
45326;SDS011;31062;49.678;24.560;2023-05-27T06:23:41;9.10;;;4.47;;
45326;SDS011;31062;49.678;24.560;2023-05-27T06:26:33;20.45;;;5.85;;
45326;SDS011;31062;49.678;24.560;2023-05-27T06:29:19;7.47;;;4.78;;
45326;SDS011;31062;49.678;24.560;2023-05-27T06:32:05;7.78;;;4.05;;
45326;SDS011;31062;49.678;24.560;2023-05-27T06:34:51;9.77;;;4.22;;
45326;SDS011;31062;49.678;24.560;2023-05-27T06:37:42;11.57;;;4.10;;
45326;SDS011;31062;49.678;24.560;2023-05-27T06:40:28;7.07;;;4.20;;
45326;SDS011;31062;49.678;24.560;2023-05-27T06:43:14;6.60;;;3.72;;
45326;SDS011;31062;49.678;24.560;2023-05-27T06:46:22;7.65;;;4.25;;
45326;SDS011;31062;49.678;24.560;2023-05-27T06:49:16;7.03;;;3.90;;
45326;SDS011;31062;49.678;24.560;2023-05-27T06:52:03;8.73;;;4.05;;
45326;SDS011;31062;49.678;24.560;2023-05-27T06:55:02;7.53;;;4.38;;
45326;SDS011;31062;49.678;24.560;2023-05-27T06:58:07;12.25;;;4.47;;
45326;SDS011;31062;49.678;24.560;2023-05-27T07:01:08;17.60;;;5.55;;
45326;SDS011;31062;49.678;24.560;2023-05-27T07:04:26;6.15;;;3.95;;
45326;SDS011;31062;49.678;24.560;2023-05-27T07:07:15;6.25;;;3.88;;
45326;SDS011;31062;49.678;24.560;2023-05-27T07:10:01;5.40;;;4.18;;
45326;SDS011;31062;49.678;24.560;2023-05-27T07:12:47;9.75;;;4.38;;
45326;SDS011;31062;49.678;24.560;2023-05-27T07:15:42;9.05;;;4.10;;
45326;SDS011;31062;49.678;24.560;2023-05-27T07:18:27;5.88;;;4.55;;
45326;SDS011;31062;49.678;24.560;2023-05-27T07:21:18;6.45;;;4.10;;
45326;SDS011;31062;49.678;24.560;2023-05-27T07:24:04;11.02;;;4.50;;
45326;SDS011;31062;49.678;24.560;2023-05-27T07:26:51;9.52;;;4.07;;
45326;SDS011;31062;49.678;24.560;2023-05-27T07:29:41;5.50;;;3.63;;
45326;SDS011;31062;49.678;24.560;2023-05-27T07:32:52;7.28;;;4.07;;
45326;SDS011;31062;49.678;24.560;2023-05-27T07:35:38;7.35;;;3.72;;
45326;SDS011;31062;49.678;24.560;2023-05-27T07:38:25;9.00;;;4.18;;
45326;SDS011;31062;49.678;24.560;2023-05-27T07:41:10;15.55;;;4.05;;
45326;SDS011;31062;49.678;24.560;2023-05-27T07:43:59;5.75;;;3.88;;
45326;SDS011;31062;49.678;24.560;2023-05-27T07:46:44;9.45;;;4.22;;
45326;SDS011;31062;49.678;24.560;2023-05-27T07:49:29;8.35;;;3.78;;
45326;SDS011;31062;49.678;24.560;2023-05-27T07:52:41;16.80;;;4.10;;
45326;SDS011;31062;49.678;24.560;2023-05-27T07:55:47;6.93;;;3.88;;
45326;SDS011;31062;49.678;24.560;2023-05-27T07:58:33;6.45;;;3.42;;
45326;SDS011;31062;49.678;24.560;2023-05-27T08:01:26;8.35;;;4.20;;
45326;SDS011;31062;49.678;24.560;2023-05-27T08:04:17;11.43;;;4.13;;
45326;SDS011;31062;49.678;24.560;2023-05-27T08:07:20;7.43;;;4.07;;
45326;SDS011;31062;49.678;24.560;2023-05-27T08:10:17;6.38;;;3.80;;
45326;SDS011;31062;49.678;24.560;2023-05-27T08:13:23;4.85;;;3.20;;
45326;SDS011;31062;49.678;24.560;2023-05-27T08:16:20;11.80;;;4.10;;
45326;SDS011;31062;49.678;24.560;2023-05-27T08:19:21;6.43;;;3.63;;
45326;SDS011;31062;49.678;24.560;2023-05-27T08:22:30;8.02;;;3.28;;
45326;SDS011;31062;49.678;24.560;2023-05-27T08:25:36;6.10;;;4.03;;
45326;SDS011;31062;49.678;24.560;2023-05-27T08:28:48;6.65;;;3.55;;
45326;SDS011;31062;49.678;24.560;2023-05-27T08:31:53;9.07;;;4.43;;
45326;SDS011;31062;49.678;24.560;2023-05-27T08:34:42;10.43;;;3.38;;
45326;SDS011;31062;49.678;24.560;2023-05-27T08:37:28;9.73;;;4.32;;
45326;SDS011;31062;49.678;24.560;2023-05-27T08:40:14;7.45;;;4.00;;
45326;SDS011;31062;49.678;24.560;2023-05-27T08:43:05;11.60;;;4.22;;
45326;SDS011;31062;49.678;24.560;2023-05-27T08:45:56;13.07;;;3.78;;
45326;SDS011;31062;49.678;24.560;2023-05-27T08:48:42;12.23;;;4.25;;
45326;SDS011;31062;49.678;24.560;2023-05-27T08:51:31;12.73;;;3.63;;
45326;SDS011;31062;49.678;24.560;2023-05-27T08:54:17;9.15;;;3.92;;
45326;SDS011;31062;49.678;24.560;2023-05-27T08:57:04;8.70;;;3.38;;
45326;SDS011;31062;49.678;24.560;2023-05-27T08:59:52;8.70;;;3.40;;
45326;SDS011;31062;49.678;24.560;2023-05-27T09:02:39;8.48;;;3.67;;
45326;SDS011;31062;49.678;24.560;2023-05-27T09:05:26;11.02;;;3.67;;
45326;SDS011;31062;49.678;24.560;2023-05-27T09:08:12;8.48;;;3.83;;
45326;SDS011;31062;49.678;24.560;2023-05-27T09:10:58;10.75;;;3.70;;
45326;SDS011;31062;49.678;24.560;2023-05-27T09:13:43;8.55;;;4.18;;
45326;SDS011;31062;49.678;24.560;2023-05-27T09:16:29;10.07;;;3.75;;
45326;SDS011;31062;49.678;24.560;2023-05-27T09:19:15;8.18;;;3.20;;
45326;SDS011;31062;49.678;24.560;2023-05-27T09:22:05;7.13;;;3.60;;
45326;SDS011;31062;49.678;24.560;2023-05-27T09:24:54;3.95;;;2.70;;
45326;SDS011;31062;49.678;24.560;2023-05-27T09:27:42;7.10;;;3.45;;
45326;SDS011;31062;49.678;24.560;2023-05-27T09:30:29;4.95;;;3.35;;
45326;SDS011;31062;49.678;24.560;2023-05-27T09:33:14;5.20;;;3.42;;
45326;SDS011;31062;49.678;24.560;2023-05-27T09:36:08;3.20;;;2.90;;
45326;SDS011;31062;49.678;24.560;2023-05-27T09:39:04;6.10;;;3.45;;
45326;SDS011;31062;49.678;24.560;2023-05-27T09:41:54;7.03;;;3.72;;
45326;SDS011;31062;49.678;24.560;2023-05-27T09:44:41;6.97;;;3.13;;
45326;SDS011;31062;49.678;24.560;2023-05-27T09:47:33;6.38;;;3.80;;
45326;SDS011;31062;49.678;24.560;2023-05-27T09:50:19;7.30;;;3.35;;
45326;SDS011;31062;49.678;24.560;2023-05-27T09:53:06;6.75;;;3.63;;
45326;SDS011;31062;49.678;24.560;2023-05-27T09:55:56;5.88;;;3.50;;
45326;SDS011;31062;49.678;24.560;2023-05-27T09:58:42;7.28;;;3.42;;
45326;SDS011;31062;49.678;24.560;2023-05-27T10:01:28;13.13;;;3.70;;
45326;SDS011;31062;49.678;24.560;2023-05-27T10:04:15;5.55;;;3.22;;
45326;SDS011;31062;49.678;24.560;2023-05-27T10:07:03;7.90;;;3.72;;
45326;SDS011;31062;49.678;24.560;2023-05-27T10:09:50;9.38;;;3.83;;
45326;SDS011;31062;49.678;24.560;2023-05-27T10:12:42;11.73;;;3.70;;
45326;SDS011;31062;49.678;24.560;2023-05-27T10:15:30;6.03;;;3.10;;
45326;SDS011;31062;49.678;24.560;2023-05-27T10:18:23;7.25;;;3.33;;
45326;SDS011;31062;49.678;24.560;2023-05-27T10:21:17;7.78;;;3.88;;
45326;SDS011;31062;49.678;24.560;2023-05-27T10:24:09;6.60;;;2.95;;
45326;SDS011;31062;49.678;24.560;2023-05-27T10:26:59;5.63;;;3.03;;
45326;SDS011;31062;49.678;24.560;2023-05-27T10:29:56;11.45;;;3.38;;
45326;SDS011;31062;49.678;24.560;2023-05-27T10:32:47;8.32;;;3.72;;
45326;SDS011;31062;49.678;24.560;2023-05-27T10:35:40;4.80;;;2.75;;
45326;SDS011;31062;49.678;24.560;2023-05-27T10:38:27;10.68;;;3.35;;
45326;SDS011;31062;49.678;24.560;2023-05-27T10:41:12;7.65;;;2.70;;
45326;SDS011;31062;49.678;24.560;2023-05-27T10:43:58;8.27;;;3.25;;
45326;SDS011;31062;49.678;24.560;2023-05-27T10:46:45;6.22;;;2.95;;
45326;SDS011;31062;49.678;24.560;2023-05-27T10:49:35;6.80;;;3.40;;
45326;SDS011;31062;49.678;24.560;2023-05-27T10:52:30;5.72;;;2.80;;
45326;SDS011;31062;49.678;24.560;2023-05-27T10:55:25;6.38;;;2.92;;
45326;SDS011;31062;49.678;24.560;2023-05-27T10:58:12;8.38;;;3.38;;
45326;SDS011;31062;49.678;24.560;2023-05-27T11:00:57;5.25;;;2.85;;
45326;SDS011;31062;49.678;24.560;2023-05-27T11:03:46;6.05;;;2.97;;
45326;SDS011;31062;49.678;24.560;2023-05-27T11:06:35;6.20;;;2.90;;
45326;SDS011;31062;49.678;24.560;2023-05-27T11:09:20;5.95;;;2.90;;
45326;SDS011;31062;49.678;24.560;2023-05-27T11:12:06;5.20;;;3.17;;
45326;SDS011;31062;49.678;24.560;2023-05-27T11:14:54;7.50;;;4.07;;
45326;SDS011;31062;49.678;24.560;2023-05-27T11:17:44;3.75;;;2.63;;
45326;SDS011;31062;49.678;24.560;2023-05-27T11:20:37;7.43;;;2.60;;
45326;SDS011;31062;49.678;24.560;2023-05-27T11:23:32;5.88;;;3.15;;
45326;SDS011;31062;49.678;24.560;2023-05-27T11:26:21;5.35;;;2.75;;
45326;SDS011;31062;49.678;24.560;2023-05-27T11:29:08;11.13;;;2.83;;
45326;SDS011;31062;49.678;24.560;2023-05-27T11:31:54;9.05;;;2.80;;
45326;SDS011;31062;49.678;24.560;2023-05-27T11:34:40;12.15;;;3.25;;
45326;SDS011;31062;49.678;24.560;2023-05-27T11:37:34;5.03;;;2.60;;
45326;SDS011;31062;49.678;24.560;2023-05-27T11:40:20;5.10;;;2.70;;
45326;SDS011;31062;49.678;24.560;2023-05-27T11:43:06;6.70;;;2.35;;
45326;SDS011;31062;49.678;24.560;2023-05-27T11:45:52;7.97;;;2.72;;
45326;SDS011;31062;49.678;24.560;2023-05-27T11:48:49;4.97;;;2.97;;
45326;SDS011;31062;49.678;24.560;2023-05-27T11:51:37;5.65;;;2.38;;
45326;SDS011;31062;49.678;24.560;2023-05-27T11:54:27;11.30;;;3.40;;
45326;SDS011;31062;49.678;24.560;2023-05-27T11:57:15;5.88;;;2.72;;
45326;SDS011;31062;49.678;24.560;2023-05-27T12:00:00;8.75;;;3.17;;
45326;SDS011;31062;49.678;24.560;2023-05-27T12:02:48;4.68;;;2.63;;
45326;SDS011;31062;49.678;24.560;2023-05-27T12:05:35;6.57;;;2.80;;
45326;SDS011;31062;49.678;24.560;2023-05-27T12:08:20;10.38;;;2.80;;
45326;SDS011;31062;49.678;24.560;2023-05-27T12:11:05;6.43;;;2.78;;
45326;SDS011;31062;49.678;24.560;2023-05-27T12:13:53;5.72;;;2.67;;
45326;SDS011;31062;49.678;24.560;2023-05-27T12:16:40;7.82;;;2.60;;
45326;SDS011;31062;49.678;24.560;2023-05-27T12:19:26;8.63;;;3.05;;
45326;SDS011;31062;49.678;24.560;2023-05-27T12:22:11;5.95;;;3.08;;
45326;SDS011;31062;49.678;24.560;2023-05-27T12:24:56;6.82;;;2.63;;
45326;SDS011;31062;49.678;24.560;2023-05-27T12:27:43;7.35;;;2.60;;
45326;SDS011;31062;49.678;24.560;2023-05-27T12:30:32;3.75;;;2.50;;
45326;SDS011;31062;49.678;24.560;2023-05-27T12:33:20;5.53;;;2.75;;
45326;SDS011;31062;49.678;24.560;2023-05-27T12:36:08;5.55;;;2.88;;
45326;SDS011;31062;49.678;24.560;2023-05-27T12:38:56;5.60;;;2.90;;
45326;SDS011;31062;49.678;24.560;2023-05-27T12:41:48;6.35;;;2.33;;
45326;SDS011;31062;49.678;24.560;2023-05-27T12:44:41;8.07;;;2.53;;
45326;SDS011;31062;49.678;24.560;2023-05-27T12:47:28;7.07;;;2.33;;
45326;SDS011;31062;49.678;24.560;2023-05-27T12:50:15;10.38;;;2.90;;
45326;SDS011;31062;49.678;24.560;2023-05-27T12:53:01;6.55;;;3.67;;
45326;SDS011;31062;49.678;24.560;2023-05-27T12:55:47;6.32;;;2.85;;
45326;SDS011;31062;49.678;24.560;2023-05-27T12:58:33;6.28;;;2.60;;
45326;SDS011;31062;49.678;24.560;2023-05-27T13:01:18;9.63;;;2.58;;
45326;SDS011;31062;49.678;24.560;2023-05-27T13:04:04;9.55;;;2.70;;
45326;SDS011;31062;49.678;24.560;2023-05-27T13:06:50;3.75;;;2.40;;
45326;SDS011;31062;49.678;24.560;2023-05-27T13:09:37;6.07;;;3.20;;
45326;SDS011;31062;49.678;24.560;2023-05-27T13:12:22;7.05;;;2.92;;
45326;SDS011;31062;49.678;24.560;2023-05-27T13:15:08;4.50;;;2.72;;
45326;SDS011;31062;49.678;24.560;2023-05-27T13:17:55;10.93;;;3.20;;
45326;SDS011;31062;49.678;24.560;2023-05-27T13:20:41;9.32;;;2.60;;
45326;SDS011;31062;49.678;24.560;2023-05-27T13:23:27;6.10;;;2.90;;
45326;SDS011;31062;49.678;24.560;2023-05-27T13:26:14;6.95;;;2.47;;
45326;SDS011;31062;49.678;24.560;2023-05-27T13:28:59;12.60;;;3.22;;
45326;SDS011;31062;49.678;24.560;2023-05-27T13:31:48;12.82;;;3.20;;
45326;SDS011;31062;49.678;24.560;2023-05-27T13:34:33;8.43;;;3.05;;
45326;SDS011;31062;49.678;24.560;2023-05-27T13:37:18;5.80;;;2.65;;
45326;SDS011;31062;49.678;24.560;2023-05-27T13:40:05;4.13;;;2.42;;
45326;SDS011;31062;49.678;24.560;2023-05-27T13:42:54;10.52;;;2.95;;
45326;SDS011;31062;49.678;24.560;2023-05-27T13:45:41;5.50;;;2.55;;
45326;SDS011;31062;49.678;24.560;2023-05-27T13:48:27;5.65;;;2.97;;
45326;SDS011;31062;49.678;24.560;2023-05-27T13:51:12;8.43;;;2.72;;
45326;SDS011;31062;49.678;24.560;2023-05-27T13:53:58;13.45;;;3.22;;
45326;SDS011;31062;49.678;24.560;2023-05-27T13:56:44;8.23;;;2.85;;
45326;SDS011;31062;49.678;24.560;2023-05-27T13:59:29;8.75;;;2.67;;
45326;SDS011;31062;49.678;24.560;2023-05-27T14:02:15;6.80;;;2.95;;
45326;SDS011;31062;49.678;24.560;2023-05-27T14:05:01;10.50;;;2.80;;
45326;SDS011;31062;49.678;24.560;2023-05-27T14:07:47;13.25;;;3.40;;
45326;SDS011;31062;49.678;24.560;2023-05-27T14:10:33;5.93;;;2.85;;
45326;SDS011;31062;49.678;24.560;2023-05-27T14:13:19;8.60;;;2.40;;
45326;SDS011;31062;49.678;24.560;2023-05-27T14:16:05;8.77;;;3.15;;
45326;SDS011;31062;49.678;24.560;2023-05-27T14:18:52;7.07;;;2.47;;
45326;SDS011;31062;49.678;24.560;2023-05-27T14:21:38;13.38;;;3.13;;
45326;SDS011;31062;49.678;24.560;2023-05-27T14:24:26;5.55;;;2.53;;
45326;SDS011;31062;49.678;24.560;2023-05-27T14:27:12;8.88;;;2.80;;
45326;SDS011;31062;49.678;24.560;2023-05-27T14:29:58;10.70;;;3.22;;
45326;SDS011;31062;49.678;24.560;2023-05-27T14:32:43;5.47;;;2.85;;
45326;SDS011;31062;49.678;24.560;2023-05-27T14:35:29;6.30;;;2.85;;
45326;SDS011;31062;49.678;24.560;2023-05-27T14:38:15;5.80;;;2.80;;
45326;SDS011;31062;49.678;24.560;2023-05-27T14:41:01;2.85;;;2.47;;
45326;SDS011;31062;49.678;24.560;2023-05-27T14:43:47;4.80;;;2.65;;
45326;SDS011;31062;49.678;24.560;2023-05-27T14:46:37;3.97;;;2.07;;
45326;SDS011;31062;49.678;24.560;2023-05-27T14:49:23;8.50;;;2.53;;
45326;SDS011;31062;49.678;24.560;2023-05-27T14:52:08;5.18;;;2.38;;
45326;SDS011;31062;49.678;24.560;2023-05-27T14:54:54;5.25;;;2.10;;
45326;SDS011;31062;49.678;24.560;2023-05-27T14:57:39;7.63;;;3.05;;
45326;SDS011;31062;49.678;24.560;2023-05-27T15:00:25;7.30;;;2.15;;
45326;SDS011;31062;49.678;24.560;2023-05-27T15:03:10;6.68;;;2.20;;
45326;SDS011;31062;49.678;24.560;2023-05-27T15:05:56;7.88;;;2.28;;
45326;SDS011;31062;49.678;24.560;2023-05-27T15:08:45;2.92;;;1.98;;
45326;SDS011;31062;49.678;24.560;2023-05-27T15:11:30;5.13;;;2.35;;
45326;SDS011;31062;49.678;24.560;2023-05-27T15:14:16;4.40;;;1.95;;
45326;SDS011;31062;49.678;24.560;2023-05-27T15:17:01;6.25;;;2.33;;
45326;SDS011;31062;49.678;24.560;2023-05-27T15:19:48;8.05;;;2.40;;
45326;SDS011;31062;49.678;24.560;2023-05-27T15:22:34;5.03;;;2.13;;
45326;SDS011;31062;49.678;24.560;2023-05-27T15:25:20;4.65;;;2.55;;
45326;SDS011;31062;49.678;24.560;2023-05-27T15:28:06;5.57;;;2.47;;
45326;SDS011;31062;49.678;24.560;2023-05-27T15:30:52;3.90;;;2.45;;
45326;SDS011;31062;49.678;24.560;2023-05-27T15:33:38;10.85;;;2.40;;
45326;SDS011;31062;49.678;24.560;2023-05-27T15:36:28;14.50;;;2.40;;
45326;SDS011;31062;49.678;24.560;2023-05-27T15:39:13;4.07;;;2.03;;
45326;SDS011;31062;49.678;24.560;2023-05-27T15:41:58;4.80;;;2.63;;
45326;SDS011;31062;49.678;24.560;2023-05-27T15:44:44;4.85;;;2.17;;
45326;SDS011;31062;49.678;24.560;2023-05-27T15:47:30;3.80;;;2.00;;
45326;SDS011;31062;49.678;24.560;2023-05-27T15:50:16;5.47;;;2.47;;
45326;SDS011;31062;49.678;24.560;2023-05-27T15:53:02;2.90;;;1.95;;
45326;SDS011;31062;49.678;24.560;2023-05-27T15:55:50;3.30;;;2.25;;
45326;SDS011;31062;49.678;24.560;2023-05-27T15:58:36;4.60;;;2.03;;
45326;SDS011;31062;49.678;24.560;2023-05-27T16:01:22;6.45;;;2.25;;
45326;SDS011;31062;49.678;24.560;2023-05-27T16:04:07;4.10;;;2.28;;
45326;SDS011;31062;49.678;24.560;2023-05-27T16:06:53;5.32;;;2.00;;
45326;SDS011;31062;49.678;24.560;2023-05-27T16:09:38;3.38;;;2.20;;
45326;SDS011;31062;49.678;24.560;2023-05-27T16:12:24;4.75;;;2.28;;
45326;SDS011;31062;49.678;24.560;2023-05-27T16:15:12;6.47;;;2.00;;
45326;SDS011;31062;49.678;24.560;2023-05-27T16:18:01;3.85;;;2.05;;
45326;SDS011;31062;49.678;24.560;2023-05-27T16:20:47;4.22;;;2.03;;
45326;SDS011;31062;49.678;24.560;2023-05-27T16:23:34;6.30;;;2.35;;
45326;SDS011;31062;49.678;24.560;2023-05-27T16:26:20;6.03;;;2.53;;
45326;SDS011;31062;49.678;24.560;2023-05-27T16:29:07;6.18;;;2.30;;
45326;SDS011;31062;49.678;24.560;2023-05-27T16:31:52;8.75;;;2.63;;
45326;SDS011;31062;49.678;24.560;2023-05-27T16:34:38;8.05;;;2.28;;
45326;SDS011;31062;49.678;24.560;2023-05-27T16:37:23;4.05;;;2.92;;